Time;durP1;ratioP1;P1;durP2;ratioP2;P2;SDS_P1;SDS_P2;PMS_P1;PMS_P2;Temp;Humidity;BMP_temperature;BMP_pressure;BME280_temperature;BME280_humidity;BME280_pressure;Samples;Min_cycle;Max_cycle;Signal;HPM_P1;HPM_P2
2023/06/09 00:01:53;;;;;;;;;;;;;;;23.63;68.99;97616.69;5044516;28;19926;-73
2023/06/09 00:04:20;;;;;;;;;;;;;;;23.92;67.00;97625.50;5044219;28;19933;-74
2023/06/09 00:06:47;;;;;;;;;;;;;;;23.98;66.54;97607.69;5047818;28;19929;-73
2023/06/09 00:09:13;;;;;;;;;;;;;;;23.96;66.29;97610.78;5047706;28;19925;-73
2023/06/09 00:11:40;;;;;;;;;;;;;;;23.64;67.39;97607.34;5043221;28;19925;-73
2023/06/09 00:14:07;;;;;;;;;;;;;;;23.24;68.47;97614.16;5043206;28;19929;-74
2023/06/09 00:16:34;;;;;;;;;;;;;;;23.44;69.00;97618.53;5047023;28;19925;-73
2023/06/09 00:19:03;;;;;;;;;;;;;;;23.67;68.13;97605.06;5047563;28;19925;-73
2023/06/09 00:21:29;;;;;;;;;;;;;;;23.81;67.01;97611.63;5049071;28;19960;-73
2023/06/09 00:23:56;;;;;;;;;;;;;;;23.90;66.15;97614.13;5044572;28;19925;-74
2023/06/09 00:26:23;;;;;;;;;;;;;;;23.98;65.70;97607.69;5045777;28;19925;-73
2023/06/09 00:28:49;;;;;;;;;;;;;;;24.02;64.85;97603.88;5046210;28;19929;-73
2023/06/09 00:31:17;;;;;;;;;;;;;;;24.03;64.55;97601.94;5047206;28;19925;-73
2023/06/09 00:33:43;;;;;;;;;;;;;;;24.02;64.52;97603.88;5044538;28;19921;-73
2023/06/09 00:36:10;;;;;;;;;;;;;;;24.01;64.22;97612.44;5044894;28;19926;-73
2023/06/09 00:38:36;;;;;;;;;;;;;;;24.00;63.57;97616.31;5047130;28;19928;-73
2023/06/09 00:41:03;;;;;;;;;;;;;;;24.01;63.58;97609.72;5047185;28;19936;-73
2023/06/09 00:43:29;;;;;;;;;;;;;;;23.99;63.23;97603.81;5044786;28;19932;-73
2023/06/09 00:45:55;;;;;;;;;;;;;;;23.98;62.83;97599.53;5043735;28;20016;-73
2023/06/09 00:48:23;;;;;;;;;;;;;;;23.93;62.75;97600.56;5045024;28;19956;-73
2023/06/09 00:50:50;;;;;;;;;;;;;;;23.91;62.54;97608.34;5050636;28;19933;-73
2023/06/09 00:53:17;;;;;;;;;;;;;;;23.94;62.41;97601.38;5046656;28;19932;-73
2023/06/09 00:55:44;;;;;;;;;;;;;;;23.92;62.20;97603.69;5043665;28;19926;-73
2023/06/09 00:58:10;;;;;;;;;;;;;;;23.72;62.38;97611.03;5043533;28;20020;-73
2023/06/09 01:00:39;;;;;;;;;;;;;;;23.72;62.47;97615.69;5045620;28;19939;-73
2023/06/09 01:03:05;;;;;;;;;;;;;;;23.64;62.31;97610.06;5047046;28;20019;-73
2023/06/09 01:05:34;;;;;;;;;;;;;;;23.62;62.67;97614.28;5044199;28;19936;-74
2023/06/09 01:08:03;;;;;;;;;;;;;;;23.59;62.57;97604.09;5043304;28;19932;-73
2023/06/09 01:10:32;;;;;;;;;;;;;;;23.38;63.29;97609.81;5044547;28;19936;-73
2023/06/09 01:13:00;;;;;;;;;;;;;;;23.51;62.98;97600.44;5046694;28;19936;-73
2023/06/09 01:15:28;;;;;;;;;;;;;;;23.60;62.52;97608.41;5044892;28;19925;-73
2023/06/09 01:17:57;;;;;;;;;;;;;;;23.63;62.54;97603.03;5043381;28;19925;-73
2023/06/09 01:20:27;;;;;;;;;;;;;;;23.67;62.14;97600.41;5049680;28;19921;-74
2023/06/09 01:22:59;;;;;;;;;;;;;;;23.64;62.23;97610.06;5045700;28;19936;-74
2023/06/09 01:25:31;;;;;;;;;;;;;;;23.60;62.15;97611.13;5043875;28;19925;-73
2023/06/09 01:28:00;;;;;;;;;;;;;;;23.61;61.95;97613.50;5041826;28;19926;-73
2023/06/09 01:30:29;;;;;;;;;;;;;;;23.62;62.04;97609.63;5044943;28;19940;-73
2023/06/09 01:32:56;;;;;;;;;;;;;;;23.59;62.24;97607.63;5046503;28;19925;-73
2023/06/09 01:35:22;;;;;;;;;;;;;;;23.59;62.33;97601.38;5045148;28;19932;-73
2023/06/09 01:37:49;;;;;;;;;;;;;;;23.69;62.37;97602.75;5043059;28;19929;-73
2023/06/09 01:40:16;;;;;;;;;;;;;;;23.55;62.98;97612.19;5041548;28;19944;-73
2023/06/09 01:42:43;;;;;;;;;;;;;;;23.33;63.96;97606.59;5044930;28;19925;-73
2023/06/09 01:45:10;;;;;;;;;;;;;;;23.25;64.46;97608.34;5045066;28;19932;-73
2023/06/09 01:47:37;;;;;;;;;;;;;;;23.21;65.23;97603.97;5042846;28;19925;-73
2023/06/09 01:50:04;;;;;;;;;;;;;;;23.24;65.04;97614.91;5046232;28;19937;-73
2023/06/09 01:52:34;;;;;;;;;;;;;;;23.36;64.71;97605.88;5045957;28;19933;-73
2023/06/09 01:55:03;;;;;;;;;;;;;;;23.35;65.10;97602.34;5046124;28;19925;-73
2023/06/09 01:57:31;;;;;;;;;;;;;;;23.33;65.15;97601.94;5043621;28;19993;-73
2023/06/09 02:00:00;;;;;;;;;;;;;;;23.38;64.80;97609.81;5042448;28;19929;-73
2023/06/09 02:02:28;;;;;;;;;;;;;;;23.40;64.73;97596.66;5044692;28;19929;-73
2023/06/09 02:04:56;;;;;;;;;;;;;;;23.45;64.80;97607.31;5045104;28;19926;-73
2023/06/09 02:07:22;;;;;;;;;;;;;;;23.51;64.39;97602.38;5044710;28;19952;-73
2023/06/09 02:09:49;;;;;;;;;;;;;;;23.50;64.49;97598.84;5043446;28;19941;-73
2023/06/09 02:12:16;;;;;;;;;;;;;;;23.44;64.76;97597.53;5044526;28;19936;-73
2023/06/09 02:14:42;;;;;;;;;;;;;;;23.39;65.75;97608.72;5046453;28;19951;-73
2023/06/09 02:17:10;;;;;;;;;;;;;;;23.43;66.03;97595.94;5047613;28;19925;-73
2023/06/09 02:19:37;;;;;;;;;;;;;;;23.37;66.33;97610.16;5043758;28;20263;-73
2023/06/09 02:22:05;;;;;;;;;;;;;;;23.35;66.59;97612.47;5043224;28;19925;-73
2023/06/09 02:24:31;;;;;;;;;;;;;;;23.37;66.80;97600.06;5045651;28;19936;-74
2023/06/09 02:26:58;;;;;;;;;;;;;;;23.37;66.91;97610.97;5046143;28;19929;-73
2023/06/09 02:29:25;;;;;;;;;;;;;;;23.33;66.89;97610.09;5043550;28;19925;-74
2023/06/09 02:31:51;;;;;;;;;;;;;;;23.30;67.47;97599.91;5042782;28;19925;-73
2023/06/09 02:34:20;;;;;;;;;;;;;;;23.34;67.62;97606.22;5043249;28;19936;-73
2023/06/09 02:36:48;;;;;;;;;;;;;;;23.35;67.50;97598.84;5045029;28;19925;-73
2023/06/09 02:39:15;;;;;;;;;;;;;;;23.34;67.74;97600.75;5045859;28;19925;-73
2023/06/09 02:41:41;;;;;;;;;;;;;;;23.27;67.89;97597.09;5041882;28;19926;-73
2023/06/09 02:44:08;;;;;;;;;;;;;;;23.26;68.01;97604.47;5042891;28;20378;-73
2023/06/09 02:46:35;;;;;;;;;;;;;;;23.27;68.06;97602.53;5044233;28;19925;-73
2023/06/09 02:49:01;;;;;;;;;;;;;;;23.27;68.34;97605.28;5045007;28;19925;-73
2023/06/09 02:51:29;;;;;;;;;;;;;;;23.18;68.79;97605.44;5050008;28;19929;-73
2023/06/09 02:53:55;;;;;;;;;;;;;;;23.17;69.19;97612.03;5045348;28;19984;-74
2023/06/09 02:56:22;;;;;;;;;;;;;;;23.20;69.24;97610.53;5047357;28;19933;-74
2023/06/09 02:58:50;;;;;;;;;;;;;;;23.21;69.60;97612.13;5049270;28;20036;-74
2023/06/09 03:01:17;;;;;;;;;;;;;;;23.20;69.79;97619.50;5047915;28;20278;-74
2023/06/09 03:03:44;;;;;;;;;;;;;;;23.16;69.76;97618.63;5045937;28;20362;-73
2023/06/09 03:06:13;;;;;;;;;;;;;;;23.17;69.78;97617.50;5046303;28;19931;-73
2023/06/09 03:08:41;;;;;;;;;;;;;;;23.17;70.34;97620.22;5044913;28;19929;-73
2023/06/09 03:11:07;;;;;;;;;;;;;;;23.15;70.84;97625.19;5045633;28;19921;-73
2023/06/09 03:13:34;;;;;;;;;;;;;;;23.19;70.70;97620.63;5048366;28;19929;-73
2023/06/09 03:16:02;;;;;;;;;;;;;;;23.15;70.86;97627.91;5049262;28;19925;-73
2023/06/09 03:18:28;;;;;;;;;;;;;;;23.15;71.09;97624.44;5046995;28;19929;-73
2023/06/09 03:20:55;;;;;;;;;;;;;;;23.19;71.17;97630.75;5051098;28;19933;-73
2023/06/09 03:23:22;;;;;;;;;;;;;;;23.19;71.19;97622.56;5063153;28;19932;-74
2023/06/09 03:25:51;;;;;;;;;;;;;;;23.20;71.06;97616.00;5046006;28;20054;-74
2023/06/09 03:28:18;;;;;;;;;;;;;;;23.17;71.08;97622.94;5046570;28;19930;-73
2023/06/09 03:30:44;;;;;;;;;;;;;;;23.20;70.48;97616.78;5049585;28;19948;-73
2023/06/09 03:33:11;;;;;;;;;;;;;;;23.15;71.06;97611.56;5049579;28;19948;-73
2023/06/09 03:35:37;;;;;;;;;;;;;;;23.16;70.94;97605.00;5045529;28;19926;-74
2023/06/09 03:38:04;;;;;;;;;;;;;;;23.13;71.04;97600.25;5045602;28;19932;-73
2023/06/09 03:40:30;;;;;;;;;;;;;;;23.09;71.34;97612.97;5047782;28;19926;-73
2023/06/09 03:42:58;;;;;;;;;;;;;;;22.95;72.04;97616.16;5048634;28;19965;-74
2023/06/09 03:45:24;;;;;;;;;;;;;;;22.89;73.15;97619.50;5047045;28;19925;-74
2023/06/09 03:47:51;;;;;;;;;;;;;;;22.87;73.34;97629.94;5045320;28;19925;-73
2023/06/09 03:50:17;;;;;;;;;;;;;;;22.26;76.49;97638.34;5050628;28;19951;-73
2023/06/09 03:52:44;;;;;;;;;;;;;;;21.86;81.99;97632.88;5048389;28;19933;-73
2023/06/09 03:55:12;;;;;;;;;;;;;;;21.60;86.44;97637.09;5047164;28;19925;-73
2023/06/09 03:57:38;;;;;;;;;;;;;;;20.82;95.57;97653.50;5044923;28;19940;-73
2023/06/09 04:00:07;;;;;;;;;;;;;;;20.55;98.62;97659.53;5045283;28;19926;-73
2023/06/09 04:02:33;;;;;;;;;;;;;;;20.77;97.63;97659.13;5046855;28;19922;-73
2023/06/09 04:04:59;;;;;;;;;;;;;;;20.45;100.00;97661.53;5048460;28;19925;-74
2023/06/09 04:07:29;;;;;;;;;;;;;;;20.42;100.00;97673.03;5046642;28;19932;-73
2023/06/09 04:09:56;;;;;;;;;;;;;;;20.49;100.00;97664.34;5044849;28;19925;-73
2023/06/09 04:12:22;;;;;;;;;;;;;;;20.81;100.00;97671.72;5045600;28;19921;-73
2023/06/09 04:14:49;;;;;;;;;;;;;;;21.19;96.04;97668.78;5048084;28;19933;-73
2023/06/09 04:17:16;;;;;;;;;;;;;;;21.43;93.08;97670.72;5046999;28;19928;-73
2023/06/09 04:19:43;;;;;;;;;;;;;;;21.54;92.52;97671.84;5045115;28;20624;-73
2023/06/09 04:22:10;;;;;;;;;;;;;;;21.71;90.55;97659.97;5047404;28;19925;-73
2023/06/09 04:24:36;;;;;;;;;;;;;;;21.94;88.45;97669.25;5046530;28;19925;-73
2023/06/09 04:27:03;;;;;;;;;;;;;;;22.09;87.10;97667.75;5047608;28;19932;-73
2023/06/09 04:29:31;;;;;;;;;;;;;;;21.96;88.08;97669.69;5044117;28;19925;-73
2023/06/09 04:31:59;;;;;;;;;;;;;;;21.96;88.48;97673.22;5042895;28;19925;-73
2023/06/09 04:34:27;;;;;;;;;;;;;;;21.88;88.74;97665.97;5045955;28;19926;-73
2023/06/09 04:36:55;;;;;;;;;;;;;;;22.10;87.29;97667.41;5047830;28;19925;-73
2023/06/09 04:39:24;;;;;;;;;;;;;;;21.81;91.00;97673.91;5045171;28;19925;-73
2023/06/09 04:41:52;;;;;;;;;;;;;;;21.93;88.55;97664.94;5043122;28;19925;-73
2023/06/09 04:44:20;;;;;;;;;;;;;;;21.81;90.45;97668.44;5045126;28;19941;-74
2023/06/09 04:46:47;;;;;;;;;;;;;;;21.72;92.29;97667.00;5047756;28;19925;-74
2023/06/09 04:49:14;;;;;;;;;;;;;;;21.68;91.67;97655.19;5046391;28;19948;-74
2023/06/09 04:51:46;;;;;;;;;;;;;;;22.04;89.44;97663.34;5049368;28;20302;-73
2023/06/09 04:54:13;;;;;;;;;;;;;;;22.25;87.90;97655.78;5043950;28;19921;-73
2023/06/09 04:56:41;;;;;;;;;;;;;;;22.35;87.00;97662.69;5035956;28;19952;-73
2023/06/09 04:59:07;;;;;;;;;;;;;;;22.47;86.01;97660.72;5034388;28;19932;-73
2023/06/09 05:01:34;;;;;;;;;;;;;;;22.42;86.21;97669.13;5036160;28;19929;-73
2023/06/09 05:04:00;;;;;;;;;;;;;;;22.35;86.10;97663.47;5042540;28;19925;-73
2023/06/09 05:06:27;;;;;;;;;;;;;;;21.93;89.85;97660.31;5050838;28;19921;-73
2023/06/09 05:08:57;;;;;;;;;;;;;;;21.75;91.68;97655.44;5042496;28;19994;-73
2023/06/09 05:11:23;;;;;;;;;;;;;;;21.51;94.41;97670.59;5045068;28;19987;-73
2023/06/09 05:13:49;;;;;;;;;;;;;;;21.35;96.33;97664.25;5045691;28;19960;-73
2023/06/09 05:16:16;;;;;;;;;;;;;;;21.80;92.31;97666.06;5046341;28;19933;-74
2023/06/09 05:18:42;;;;;;;;;;;;;;;22.06;90.73;97666.53;5043432;28;19933;-74
2023/06/09 05:21:09;;;;;;;;;;;;;;;21.85;91.59;97660.41;5049690;28;19929;-74
2023/06/09 05:23:35;;;;;;;;;;;;;;;21.37;96.25;97672.88;5044015;28;19932;-74
2023/06/09 05:26:03;;;;;;;;;;;;;;;20.92;100.00;97678.28;5043318;28;19932;-74
2023/06/09 05:28:29;;;;;;;;;;;;;;;20.77;100.00;97687.06;5045695;28;19933;-74
2023/06/09 05:30:56;;;;;;;;;;;;;;;20.11;100.00;97688.09;5046659;28;19925;-74
2023/06/09 05:33:22;;;;;;;;;;;;;;;20.22;100.00;97698.22;5044430;28;19925;-74
2023/06/09 05:35:49;;;;;;;;;;;;;;;20.80;100.00;97689.13;5043481;28;19939;-74
2023/06/09 05:38:15;;;;;;;;;;;;;;;20.51;100.00;97691.16;5043639;28;19925;-74
2023/06/09 05:40:42;;;;;;;;;;;;;;;20.71;100.00;97680.25;5046454;28;19944;-74
2023/06/09 05:43:09;;;;;;;;;;;;;;;20.58;100.00;97684.06;5047055;28;19921;-73
2023/06/09 05:45:36;;;;;;;;;;;;;;;20.46;100.00;97671.25;5043924;28;19925;-73
2023/06/09 05:48:03;;;;;;;;;;;;;;;21.05;100.00;97670.97;5042162;28;19933;-73
2023/06/09 05:50:29;;;;;;;;;;;;;;;21.62;96.55;97681.03;5050174;28;19936;-73
2023/06/09 05:52:56;;;;;;;;;;;;;;;21.90;93.83;97674.59;5046464;28;19925;-73
2023/06/09 05:55:22;;;;;;;;;;;;;;;22.01;92.78;97664.03;5045217;28;19925;-74
2023/06/09 05:57:48;;;;;;;;;;;;;;;21.99;92.59;97667.09;5042695;28;19940;-74
2023/06/09 06:00:16;;;;;;;;;;;;;;;21.83;94.11;97678.97;5042980;28;19925;-74
2023/06/09 06:02:44;;;;;;;;;;;;;;;22.08;91.89;97686.00;5046299;28;19921;-74
2023/06/09 06:05:12;;;;;;;;;;;;;;;21.89;94.77;97683.06;5046281;28;19931;-74
2023/06/09 06:07:38;;;;;;;;;;;;;;;21.64;96.84;97687.69;5042962;28;19949;-74
2023/06/09 06:10:05;;;;;;;;;;;;;;;21.61;96.99;97698.44;5043092;28;19925;-74
2023/06/09 06:12:32;;;;;;;;;;;;;;;21.45;99.04;97698.31;5044612;28;20001;-74
2023/06/09 06:14:58;;;;;;;;;;;;;;;21.00;100.00;97706.50;5047117;28;19928;-74
2023/06/09 06:17:26;;;;;;;;;;;;;;;20.67;100.00;97700.28;5045748;28;19926;-73
2023/06/09 06:19:52;;;;;;;;;;;;;;;20.75;100.00;97692.06;5048555;28;19972;-73
2023/06/09 06:22:19;;;;;;;;;;;;;;;21.32;100.00;97705.66;5048109;28;19925;-73
2023/06/09 06:24:45;;;;;;;;;;;;;;;21.63;99.28;97697.00;5048427;28;19921;-73
2023/06/09 06:27:12;;;;;;;;;;;;;;;21.88;97.12;97695.06;5048186;28;19932;-73
2023/06/09 06:29:38;;;;;;;;;;;;;;;21.82;97.69;97693.69;5047335;28;19932;-74
2023/06/09 06:32:06;;;;;;;;;;;;;;;22.11;94.77;97692.66;5046649;28;19913;-74
2023/06/09 06:34:34;;;;;;;;;;;;;;;22.06;96.45;97701.88;5049191;28;19926;-74
2023/06/09 06:37:00;;;;;;;;;;;;;;;22.18;94.34;97696.41;5065642;28;19936;-74
2023/06/09 06:39:27;;;;;;;;;;;;;;;22.23;94.46;97692.66;5048131;28;19925;-74
2023/06/09 06:41:53;;;;;;;;;;;;;;;22.20;95.03;97693.34;5046392;28;19921;-71
2023/06/09 06:44:20;;;;;;;;;;;;;;;22.40;94.21;97700.56;5045978;28;19929;-71
2023/06/09 06:46:46;;;;;;;;;;;;;;;22.47;92.49;97696.09;5049346;28;20017;-71
2023/06/09 06:49:13;;;;;;;;;;;;;;;22.57;91.87;97692.88;5049505;28;19933;-71
2023/06/09 06:51:41;;;;;;;;;;;;;;;22.69;91.32;97696.72;5050957;28;19925;-71
2023/06/09 06:54:07;;;;;;;;;;;;;;;22.46;93.62;97702.69;5046050;28;19925;-71
2023/06/09 06:56:33;;;;;;;;;;;;;;;22.15;96.55;97697.09;5048649;28;19932;-71
2023/06/09 06:59:00;;;;;;;;;;;;;;;22.31;94.97;97700.66;5049249;28;19925;-71
2023/06/09 07:01:26;;;;;;;;;;;;;;;22.23;96.77;97695.38;5047537;28;19925;-71
2023/06/09 07:03:53;;;;;;;;;;;;;;;22.11;97.77;97696.19;5046052;28;19925;-71
2023/06/09 07:06:20;;;;;;;;;;;;;;;22.40;94.63;97697.81;5045268;28;19932;-71
2023/06/09 07:08:48;;;;;;;;;;;;;;;22.65;93.21;97699.38;5049048;28;19925;-71
2023/06/09 07:11:15;;;;;;;;;;;;;;;22.75;92.57;97708.94;5048767;28;19925;-71
2023/06/09 07:13:41;;;;;;;;;;;;;;;22.72;92.73;97704.97;5045617;28;19936;-71
2023/06/09 07:16:08;;;;;;;;;;;;;;;22.71;94.01;97708.06;5045478;28;19929;-71
2023/06/09 07:18:34;;;;;;;;;;;;;;;22.41;96.24;97707.56;5048168;28;19940;-70
2023/06/09 07:21:00;;;;;;;;;;;;;;;22.55;95.30;97706.06;5053762;28;19925;-71
2023/06/09 07:23:27;;;;;;;;;;;;;;;22.53;94.87;97702.88;5047372;28;19925;-71
2023/06/09 07:25:54;;;;;;;;;;;;;;;22.41;95.70;97691.22;5045584;28;19928;-70
2023/06/09 07:28:21;;;;;;;;;;;;;;;22.37;95.36;97701.25;5046157;28;20005;-71
2023/06/09 07:30:47;;;;;;;;;;;;;;;22.45;95.13;97698.38;5048691;28;19925;-74
2023/06/09 07:33:16;;;;;;;;;;;;;;;22.14;96.49;97698.22;5047778;28;19936;-74
2023/06/09 07:35:43;;;;;;;;;;;;;;;22.36;95.21;97697.72;5037288;28;19929;-74
2023/06/09 07:38:09;;;;;;;;;;;;;;;22.68;92.80;97697.88;5036197;28;19925;-74
2023/06/09 07:40:36;;;;;;;;;;;;;;;22.91;90.82;97696.16;5037074;28;19925;-74
2023/06/09 07:43:03;;;;;;;;;;;;;;;23.07;89.42;97694.28;5036985;28;19953;-74
2023/06/09 07:45:30;;;;;;;;;;;;;;;23.13;88.99;97690.16;5036583;28;19925;-74
2023/06/09 07:47:56;;;;;;;;;;;;;;;23.16;88.58;97686.72;5036997;28;19926;-74
2023/06/09 07:50:22;;;;;;;;;;;;;;;23.21;88.23;97683.72;5043385;28;19951;-74
2023/06/09 07:52:49;;;;;;;;;;;;;;;23.29;87.52;97685.50;5048997;28;19929;-74
2023/06/09 07:55:15;;;;;;;;;;;;;;;23.24;87.00;97687.72;5048304;28;19925;-74
2023/06/09 07:57:42;;;;;;;;;;;;;;;23.31;86.61;97687.88;5043999;28;19929;-74
2023/06/09 08:00:10;;;;;;;;;;;;;;;23.26;86.83;97688.13;5044871;28;19969;-74
2023/06/09 08:02:40;;;;;;;;;;;;;;;23.30;87.11;97687.09;5047963;28;19936;-71
2023/06/09 08:05:07;;;;;;;;;;;;;;;23.23;86.73;97689.63;5047800;28;19925;-70
2023/06/09 08:07:33;;;;;;;;;;;;;;;23.31;85.84;97685.94;5045244;28;19926;-71
2023/06/09 08:10:00;;;;;;;;;;;;;;;23.25;86.23;97679.16;5044328;28;19932;-71
2023/06/09 08:12:26;;;;;;;;;;;;;;;23.04;88.16;97681.34;5045887;28;19925;-71
2023/06/09 08:14:52;;;;;;;;;;;;;;;23.04;88.47;97684.06;5047894;28;19939;-71
2023/06/09 08:17:20;;;;;;;;;;;;;;;23.16;87.29;97675.81;5047082;28;19928;-70
2023/06/09 08:19:46;;;;;;;;;;;;;;;23.26;85.81;97674.53;5045705;28;20525;-70
2023/06/09 08:22:13;;;;;;;;;;;;;;;23.37;86.32;97676.34;5047950;28;19926;-71
2023/06/09 08:24:39;;;;;;;;;;;;;;;23.42;86.42;97673.41;5036106;28;19922;-71
2023/06/09 08:27:07;;;;;;;;;;;;;;;23.52;85.67;97667.41;5035807;28;20397;-70
2023/06/09 08:29:33;;;;;;;;;;;;;;;23.70;83.62;97662.41;5035929;28;19932;-71
2023/06/09 08:32:00;;;;;;;;;;;;;;;23.87;82.39;97661.22;5035869;28;19925;-71
2023/06/09 08:34:30;;;;;;;;;;;;;;;24.02;81.06;97669.34;5044650;28;19949;-71
2023/06/09 08:36:57;;;;;;;;;;;;;;;24.20;79.38;97667.06;5047719;28;19932;-71
2023/06/09 08:39:24;;;;;;;;;;;;;;;24.27;78.87;97666.41;5061842;28;19925;-71
2023/06/09 08:41:53;;;;;;;;;;;;;;;24.42;75.65;97665.53;5043744;28;19933;-71
2023/06/09 08:44:20;;;;;;;;;;;;;;;24.26;72.31;97659.38;5044590;28;19937;-71
2023/06/09 08:46:49;;;;;;;;;;;;;;;24.12;74.05;97665.31;5047289;28;19926;-71
2023/06/09 08:49:16;;;;;;;;;;;;;;;24.50;72.05;97661.81;5047035;28;19925;-71
2023/06/09 08:51:45;;;;;;;;;;;;;;;24.63;70.59;97664.03;5048846;28;19926;-71
2023/06/09 08:54:13;;;;;;;;;;;;;;;24.61;71.13;97657.34;5043694;28;19925;-71
2023/06/09 08:56:40;;;;;;;;;;;;;;;24.82;69.97;97652.31;5043720;28;19926;-71
2023/06/09 08:59:06;;;;;;;;;;;;;;;24.83;69.71;97653.91;5042872;28;19925;-71
2023/06/09 09:01:36;;;;;;;;;;;;;;;24.38;64.97;97654.56;5046307;28;19928;-71
2023/06/09 09:04:02;;;;;;;;;;;;;;;24.60;69.30;97650.34;5047158;28;19929;-71
2023/06/09 09:06:28;;;;;;;;;;;;;;;24.88;68.94;97655.56;5045237;28;19926;-71
2023/06/09 09:08:56;;;;;;;;;;;;;;;25.18;67.56;97654.56;5042601;28;19925;-71
2023/06/09 09:11:23;;;;;;;;;;;;;;;25.39;66.67;97654.13;5044567;28;19925;-71
2023/06/09 09:13:49;;;;;;;;;;;;;;;25.24;63.48;97652.31;5046801;28;19936;-71
2023/06/09 09:16:16;;;;;;;;;;;;;;;24.82;65.39;97655.06;5046390;28;19925;-71
2023/06/09 09:18:44;;;;;;;;;;;;;;;24.53;64.09;97652.91;5043505;28;19930;-71
2023/06/09 09:21:20;;;;;;;;;;;;;;;24.85;67.08;97650.84;5051019;28;19925;-71
2023/06/09 09:23:55;;;;;;;;;;;;;;;25.33;66.00;97650.13;5042962;28;19937;-71
2023/06/09 09:26:27;;;;;;;;;;;;;;;25.50;64.11;97648.88;5044164;28;19926;-71
2023/06/09 09:28:55;;;;;;;;;;;;;;;25.60;64.64;97646.28;5046641;28;19925;-71
2023/06/09 09:31:22;;;;;;;;;;;;;;;25.60;62.04;97649.03;5045653;28;19928;-71
2023/06/09 09:33:49;;;;;;;;;;;;;;;25.25;64.04;97646.47;5041871;28;19948;-71
2023/06/09 09:36:19;;;;;;;;;;;;;;;25.30;62.34;97644.59;5043244;28;19925;-71
2023/06/09 09:38:46;;;;;;;;;;;;;;;24.76;63.88;97642.06;5046137;28;19932;-71
2023/06/09 09:41:14;;;;;;;;;;;;;;;25.16;64.85;97634.22;5045881;28;19928;-71
2023/06/09 09:43:41;;;;;;;;;;;;;;;25.30;62.29;97628.19;5041358;28;19932;-71
2023/06/09 09:46:08;;;;;;;;;;;;;;;25.06;63.84;97635.63;5042522;28;19922;-71
2023/06/09 09:48:37;;;;;;;;;;;;;;;25.42;63.96;97625.25;5045252;28;19929;-71
2023/06/09 09:51:04;;;;;;;;;;;;;;;25.99;62.97;97616.00;5051083;28;19926;-71
2023/06/09 09:53:31;;;;;;;;;;;;;;;26.12;62.28;97618.09;5043455;28;19925;-71
2023/06/09 09:56:00;;;;;;;;;;;;;;;26.06;62.46;97618.78;5041036;28;19926;-71
2023/06/09 09:58:30;;;;;;;;;;;;;;;26.23;61.76;97612.81;5043992;28;19935;-72
2023/06/09 10:00:59;;;;;;;;;;;;;;;25.73;58.18;97619.53;5045204;28;19936;-74
2023/06/09 10:03:26;;;;;;;;;;;;;;;25.81;61.37;97609.47;5043209;28;19932;-73
2023/06/09 10:05:54;;;;;;;;;;;;;;;26.03;60.85;97611.31;5041441;28;19926;-73
2023/06/09 10:08:22;;;;;;;;;;;;;;;26.21;61.14;97612.41;5043276;28;19926;-73
2023/06/09 10:10:49;;;;;;;;;;;;;;;26.36;60.58;97602.41;5046882;28;19932;-73
2023/06/09 10:13:16;;;;;;;;;;;;;;;26.11;57.69;97599.34;5045883;28;19926;-73
2023/06/09 10:15:42;;;;;;;;;;;;;;;25.83;57.69;97594.28;5042623;28;19925;-73
2023/06/09 10:18:12;;;;;;;;;;;;;;;26.04;59.88;97600.03;5042466;28;19921;-72
2023/06/09 10:20:39;;;;;;;;;;;;;;;25.65;58.13;97590.50;5050884;28;19927;-72
2023/06/09 10:23:05;;;;;;;;;;;;;;;25.50;59.04;97603.16;5045850;28;19947;-71
2023/06/09 10:25:32;;;;;;;;;;;;;;;25.82;59.67;97594.63;5043577;28;19936;-71
2023/06/09 10:27:58;;;;;;;;;;;;;;;26.17;59.56;97584.19;5042302;28;19926;-71
2023/06/09 10:30:25;;;;;;;;;;;;;;;26.62;59.68;97592.13;5042496;28;19925;-71
2023/06/09 10:32:55;;;;;;;;;;;;;;;26.49;59.65;97590.81;5045856;28;19932;-71
2023/06/09 10:35:25;;;;;;;;;;;;;;;26.23;56.65;97588.19;5044416;28;19935;-72
2023/06/09 10:37:52;;;;;;;;;;;;;;;26.25;58.88;97588.56;5042167;28;19944;-71
2023/06/09 10:40:20;;;;;;;;;;;;;;;26.21;58.01;97582.28;5042600;28;19922;-72
2023/06/09 10:42:52;;;;;;;;;;;;;;;26.07;57.40;97582.88;5045405;28;19985;-73
2023/06/09 10:45:19;;;;;;;;;;;;;;;26.29;58.44;97579.25;5045242;28;19932;-74
2023/06/09 10:47:46;;;;;;;;;;;;;;;26.12;57.25;97584.50;5042137;28;19925;-72
2023/06/09 10:50:24;;;;;;;;;;;;;;;26.55;57.52;97572.13;5045821;28;19932;-71
2023/06/09 10:52:53;;;;;;;;;;;;;;;26.76;57.30;97572.31;5040842;28;20341;-72
2023/06/09 10:55:21;;;;;;;;;;;;;;;26.78;56.22;97573.50;5041556;28;19929;-72
2023/06/09 10:57:47;;;;;;;;;;;;;;;26.91;54.64;97557.63;5045339;28;20001;-72
2023/06/09 11:00:15;;;;;;;;;;;;;;;26.39;55.67;97566.06;5044022;28;19941;-72
2023/06/09 11:02:46;;;;;;;;;;;;;;;26.42;57.32;97557.91;5033763;28;19926;-72
2023/06/09 11:05:13;;;;;;;;;;;;;;;26.73;57.36;97557.44;5033697;28;19944;-72
2023/06/09 11:07:48;;;;;;;;;;;;;;;26.68;56.71;97563.22;5033478;28;19925;-72
2023/06/09 11:10:25;;;;;;;;;;;;;;;26.41;55.61;97566.47;5033525;28;19929;-72
2023/06/09 11:12:53;;;;;;;;;;;;;;;26.26;57.09;97557.31;5042556;28;19926;-72
2023/06/09 11:15:20;;;;;;;;;;;;;;;25.95;55.70;97558.47;5045211;28;19956;-72
2023/06/09 11:17:47;;;;;;;;;;;;;;;25.77;56.06;97554.72;5045179;28;19926;-72
2023/06/09 11:20:14;;;;;;;;;;;;;;;25.94;55.26;97558.84;5050368;28;19921;-73
2023/06/09 11:22:59;;;;;;;;;;;;;;;25.84;55.35;97545.81;5043824;28;19925;-72
2023/06/09 11:25:37;;;;;;;;;;;;;;;26.02;54.93;97533.16;5046654;28;19933;-72
2023/06/09 11:28:20;;;;;;;;;;;;;;;26.26;55.39;97538.94;5048438;28;19925;-72
2023/06/09 11:31:02;;;;;;;;;;;;;;;26.50;56.20;97534.88;5045113;28;19926;-72
2023/06/09 11:33:43;;;;;;;;;;;;;;;26.87;54.78;97534.06;5046976;28;19925;-73
2023/06/09 11:36:09;;;;;;;;;;;;;;;26.82;54.03;97527.00;5048435;28;19936;-72
2023/06/09 11:38:37;;;;;;;;;;;;;;;26.87;53.37;97525.84;5045445;28;19953;-72
2023/06/09 11:41:09;;;;;;;;;;;;;;;27.09;50.86;97524.88;5044647;28;19921;-72
2023/06/09 11:43:35;;;;;;;;;;;;;;;27.13;50.59;97525.69;5047587;28;19976;-72
2023/06/09 11:46:03;;;;;;;;;;;;;;;27.05;52.33;97524.06;5048579;28;19925;-72
2023/06/09 11:48:29;;;;;;;;;;;;;;;26.95;51.48;97522.03;5046030;28;19926;-72
2023/06/09 11:50:56;;;;;;;;;;;;;;;26.80;51.56;97521.13;5050290;28;19925;-72
2023/06/09 11:53:24;;;;;;;;;;;;;;;26.75;52.00;97524.16;5047059;28;19921;-72
2023/06/09 11:55:58;;;;;;;;;;;;;;;26.75;52.83;97522.22;5044790;28;19929;-72
2023/06/09 11:58:26;;;;;;;;;;;;;;;26.59;53.22;97527.16;5045959;28;19926;-72
2023/06/09 12:00:52;;;;;;;;;;;;;;;26.70;52.98;97530.78;5047932;28;19925;-72
2023/06/09 12:03:19;;;;;;;;;;;;;;;26.54;52.99;97540.41;5047249;28;19929;-72
2023/06/09 12:05:47;;;;;;;;;;;;;;;26.44;53.02;97528.16;5044645;28;19929;-72
2023/06/09 12:08:14;;;;;;;;;;;;;;;26.39;52.78;97525.78;5044507;28;19933;-72
2023/06/09 12:10:40;;;;;;;;;;;;;;;26.37;52.62;97516.38;5043755;28;19933;-72
2023/06/09 12:13:07;;;;;;;;;;;;;;;26.53;53.10;97508.69;5044909;28;19926;-72
2023/06/09 12:15:34;;;;;;;;;;;;;;;26.47;51.79;97515.69;5047275;28;19921;-72
2023/06/09 12:18:02;;;;;;;;;;;;;;;26.25;52.99;97509.19;5048795;28;19925;-71
2023/06/09 12:20:29;;;;;;;;;;;;;;;26.33;52.94;97519.06;5049223;28;19925;-72
2023/06/09 12:22:57;;;;;;;;;;;;;;;26.43;52.26;97512.13;5049236;28;19929;-71
2023/06/09 12:25:24;;;;;;;;;;;;;;;26.37;51.95;97514.41;5046284;28;19948;-72
2023/06/09 12:27:51;;;;;;;;;;;;;;;26.46;50.32;97501.19;5044676;28;19925;-71
2023/06/09 12:30:32;;;;;;;;;;;;;;;26.50;49.23;97506.72;5044272;28;19933;-71
2023/06/09 12:33:03;;;;;;;;;;;;;;;26.41;48.09;97500.75;5043691;28;20410;-71
2023/06/09 12:35:36;;;;;;;;;;;;;;;26.42;43.15;97500.38;5046356;28;19926;-71
2023/06/09 12:38:09;;;;;;;;;;;;;;;26.26;46.72;97497.09;5047885;28;20521;-71
2023/06/09 12:40:42;;;;;;;;;;;;;;;26.38;43.59;97496.03;5043632;28;20390;-75
2023/06/09 12:43:09;;;;;;;;;;;;;;;26.43;44.29;97492.97;5044463;28;19940;-74
2023/06/09 12:45:35;;;;;;;;;;;;;;;26.42;42.99;97492.19;5046922;28;19952;-72
2023/06/09 12:48:07;;;;;;;;;;;;;;;26.45;44.11;97496.91;5047421;28;19936;-73